sensor_id;sensor_type;location;lat;lon;timestamp;P1;durP1;ratioP1;P2;durP2;ratioP2
73940;SDS011;62294;48.554;10.202;2023-05-07T00:00:18;4.25;;;2.08;;
73940;SDS011;62294;48.554;10.202;2023-05-07T00:02:47;4.57;;;1.88;;
73940;SDS011;62294;48.554;10.202;2023-05-07T00:05:13;3.28;;;1.83;;
73940;SDS011;62294;48.554;10.202;2023-05-07T00:07:41;4.53;;;1.92;;
73940;SDS011;62294;48.554;10.202;2023-05-07T00:10:07;5.18;;;2.30;;
73940;SDS011;62294;48.554;10.202;2023-05-07T00:12:35;5.00;;;2.17;;
73940;SDS011;62294;48.554;10.202;2023-05-07T00:15:02;2.35;;;1.73;;
73940;SDS011;62294;48.554;10.202;2023-05-07T00:17:29;4.72;;;1.90;;
73940;SDS011;62294;48.554;10.202;2023-05-07T00:19:56;3.72;;;1.95;;
73940;SDS011;62294;48.554;10.202;2023-05-07T00:22:23;3.85;;;1.83;;
73940;SDS011;62294;48.554;10.202;2023-05-07T00:24:49;4.72;;;1.67;;
73940;SDS011;62294;48.554;10.202;2023-05-07T00:27:15;3.38;;;1.75;;
73940;SDS011;62294;48.554;10.202;2023-05-07T00:29:42;4.53;;;1.63;;
73940;SDS011;62294;48.554;10.202;2023-05-07T00:32:08;5.47;;;2.67;;
73940;SDS011;62294;48.554;10.202;2023-05-07T00:34:35;4.85;;;1.92;;
73940;SDS011;62294;48.554;10.202;2023-05-07T00:37:02;3.03;;;2.10;;
73940;SDS011;62294;48.554;10.202;2023-05-07T00:39:31;3.15;;;1.73;;
73940;SDS011;62294;48.554;10.202;2023-05-07T00:41:57;3.03;;;1.73;;
73940;SDS011;62294;48.554;10.202;2023-05-07T00:44:25;3.72;;;2.00;;
73940;SDS011;62294;48.554;10.202;2023-05-07T00:46:51;2.88;;;2.05;;
73940;SDS011;62294;48.554;10.202;2023-05-07T00:49:18;2.38;;;1.63;;
73940;SDS011;62294;48.554;10.202;2023-05-07T00:51:46;3.50;;;2.20;;
73940;SDS011;62294;48.554;10.202;2023-05-07T00:54:12;4.03;;;2.25;;
73940;SDS011;62294;48.554;10.202;2023-05-07T00:56:39;2.90;;;1.80;;
73940;SDS011;62294;48.554;10.202;2023-05-07T00:59:06;4.13;;;1.80;;
73940;SDS011;62294;48.554;10.202;2023-05-07T01:01:33;5.65;;;2.00;;
73940;SDS011;62294;48.554;10.202;2023-05-07T01:03:59;4.65;;;2.13;;
73940;SDS011;62294;48.554;10.202;2023-05-07T01:06:27;2.50;;;1.92;;
73940;SDS011;62294;48.554;10.202;2023-05-07T01:08:55;2.63;;;1.75;;
73940;SDS011;62294;48.554;10.202;2023-05-07T01:11:23;2.72;;;1.90;;
73940;SDS011;62294;48.554;10.202;2023-05-07T01:13:52;4.28;;;2.08;;
73940;SDS011;62294;48.554;10.202;2023-05-07T01:16:19;5.47;;;2.40;;
73940;SDS011;62294;48.554;10.202;2023-05-07T01:18:46;4.55;;;1.98;;
73940;SDS011;62294;48.554;10.202;2023-05-07T01:21:15;6.93;;;2.00;;
73940;SDS011;62294;48.554;10.202;2023-05-07T01:23:44;4.00;;;2.20;;
73940;SDS011;62294;48.554;10.202;2023-05-07T01:26:11;3.90;;;2.42;;
73940;SDS011;62294;48.554;10.202;2023-05-07T01:28:38;4.68;;;2.30;;
73940;SDS011;62294;48.554;10.202;2023-05-07T01:31:04;3.28;;;2.13;;
73940;SDS011;62294;48.554;10.202;2023-05-07T01:33:33;2.58;;;1.83;;
73940;SDS011;62294;48.554;10.202;2023-05-07T01:36:02;4.00;;;1.92;;
73940;SDS011;62294;48.554;10.202;2023-05-07T01:38:32;3.70;;;2.10;;
73940;SDS011;62294;48.554;10.202;2023-05-07T01:40:59;3.80;;;2.28;;
73940;SDS011;62294;48.554;10.202;2023-05-07T01:43:26;1.92;;;1.70;;
73940;SDS011;62294;48.554;10.202;2023-05-07T01:45:53;3.10;;;1.70;;
73940;SDS011;62294;48.554;10.202;2023-05-07T01:48:21;3.38;;;1.92;;
73940;SDS011;62294;48.554;10.202;2023-05-07T01:50:49;3.38;;;2.00;;
73940;SDS011;62294;48.554;10.202;2023-05-07T01:53:16;4.40;;;2.38;;
73940;SDS011;62294;48.554;10.202;2023-05-07T01:55:43;3.05;;;2.00;;
73940;SDS011;62294;48.554;10.202;2023-05-07T01:58:09;4.78;;;2.22;;
73940;SDS011;62294;48.554;10.202;2023-05-07T02:00:36;4.80;;;2.35;;
73940;SDS011;62294;48.554;10.202;2023-05-07T02:03:03;2.45;;;1.85;;
73940;SDS011;62294;48.554;10.202;2023-05-07T02:05:30;4.85;;;2.35;;
73940;SDS011;62294;48.554;10.202;2023-05-07T02:07:56;4.90;;;2.38;;
73940;SDS011;62294;48.554;10.202;2023-05-07T02:10:22;3.95;;;2.25;;
73940;SDS011;62294;48.554;10.202;2023-05-07T02:12:49;3.42;;;2.53;;
73940;SDS011;62294;48.554;10.202;2023-05-07T02:15:15;3.25;;;1.92;;
73940;SDS011;62294;48.554;10.202;2023-05-07T02:18:01;3.35;;;2.10;;
73940;SDS011;62294;48.554;10.202;2023-05-07T02:20:30;2.80;;;1.98;;
73940;SDS011;62294;48.554;10.202;2023-05-07T02:22:56;6.30;;;2.15;;
73940;SDS011;62294;48.554;10.202;2023-05-07T02:25:22;5.72;;;2.20;;
73940;SDS011;62294;48.554;10.202;2023-05-07T02:27:49;4.18;;;2.17;;
73940;SDS011;62294;48.554;10.202;2023-05-07T02:30:15;3.22;;;1.60;;
73940;SDS011;62294;48.554;10.202;2023-05-07T02:32:42;2.30;;;1.92;;
73940;SDS011;62294;48.554;10.202;2023-05-07T02:35:09;2.75;;;1.80;;
73940;SDS011;62294;48.554;10.202;2023-05-07T02:37:35;2.35;;;1.92;;
73940;SDS011;62294;48.554;10.202;2023-05-07T02:40:02;3.15;;;2.33;;
73940;SDS011;62294;48.554;10.202;2023-05-07T02:42:30;3.17;;;2.28;;
73940;SDS011;62294;48.554;10.202;2023-05-07T02:44:57;5.15;;;2.15;;
73940;SDS011;62294;48.554;10.202;2023-05-07T02:47:24;4.80;;;2.30;;
73940;SDS011;62294;48.554;10.202;2023-05-07T02:49:53;2.50;;;1.92;;
73940;SDS011;62294;48.554;10.202;2023-05-07T02:52:21;4.00;;;2.10;;
73940;SDS011;62294;48.554;10.202;2023-05-07T02:54:48;3.28;;;2.10;;
73940;SDS011;62294;48.554;10.202;2023-05-07T02:57:15;6.78;;;2.20;;
73940;SDS011;62294;48.554;10.202;2023-05-07T02:59:41;4.35;;;2.05;;
73940;SDS011;62294;48.554;10.202;2023-05-07T03:02:10;3.65;;;2.30;;
73940;SDS011;62294;48.554;10.202;2023-05-07T03:04:36;3.47;;;2.10;;
73940;SDS011;62294;48.554;10.202;2023-05-07T03:07:03;4.72;;;2.38;;
73940;SDS011;62294;48.554;10.202;2023-05-07T03:09:29;3.38;;;2.45;;
73940;SDS011;62294;48.554;10.202;2023-05-07T03:11:56;4.38;;;2.17;;
73940;SDS011;62294;48.554;10.202;2023-05-07T03:14:23;3.78;;;2.20;;
73940;SDS011;62294;48.554;10.202;2023-05-07T03:16:49;7.40;;;2.22;;
73940;SDS011;62294;48.554;10.202;2023-05-07T03:19:16;3.85;;;2.17;;
73940;SDS011;62294;48.554;10.202;2023-05-07T03:21:43;2.72;;;2.00;;
73940;SDS011;62294;48.554;10.202;2023-05-07T03:24:09;4.05;;;2.00;;
73940;SDS011;62294;48.554;10.202;2023-05-07T03:26:36;2.78;;;1.92;;
73940;SDS011;62294;48.554;10.202;2023-05-07T03:29:02;3.78;;;2.20;;
73940;SDS011;62294;48.554;10.202;2023-05-07T03:31:29;3.42;;;2.33;;
73940;SDS011;62294;48.554;10.202;2023-05-07T03:33:56;4.88;;;2.40;;
73940;SDS011;62294;48.554;10.202;2023-05-07T03:36:23;4.03;;;2.25;;
73940;SDS011;62294;48.554;10.202;2023-05-07T03:38:53;4.00;;;2.00;;
73940;SDS011;62294;48.554;10.202;2023-05-07T03:41:19;3.10;;;1.90;;
73940;SDS011;62294;48.554;10.202;2023-05-07T03:43:46;2.85;;;2.10;;
73940;SDS011;62294;48.554;10.202;2023-05-07T03:46:13;3.55;;;2.17;;
73940;SDS011;62294;48.554;10.202;2023-05-07T03:48:39;3.78;;;2.03;;
73940;SDS011;62294;48.554;10.202;2023-05-07T03:51:06;3.97;;;3.08;;
73940;SDS011;62294;48.554;10.202;2023-05-07T03:53:33;4.93;;;2.10;;
73940;SDS011;62294;48.554;10.202;2023-05-07T03:55:59;2.85;;;1.95;;
73940;SDS011;62294;48.554;10.202;2023-05-07T03:58:26;2.15;;;1.80;;
73940;SDS011;62294;48.554;10.202;2023-05-07T04:00:53;3.72;;;2.15;;
73940;SDS011;62294;48.554;10.202;2023-05-07T04:03:19;2.78;;;1.85;;
73940;SDS011;62294;48.554;10.202;2023-05-07T04:05:45;3.08;;;2.00;;
73940;SDS011;62294;48.554;10.202;2023-05-07T04:08:14;3.03;;;1.95;;
73940;SDS011;62294;48.554;10.202;2023-05-07T04:10:41;3.40;;;2.13;;
73940;SDS011;62294;48.554;10.202;2023-05-07T04:13:07;2.33;;;1.92;;
73940;SDS011;62294;48.554;10.202;2023-05-07T04:15:36;3.13;;;2.20;;
73940;SDS011;62294;48.554;10.202;2023-05-07T04:18:02;3.40;;;2.25;;
73940;SDS011;62294;48.554;10.202;2023-05-07T04:20:29;3.42;;;2.47;;
73940;SDS011;62294;48.554;10.202;2023-05-07T04:22:55;3.45;;;2.05;;
73940;SDS011;62294;48.554;10.202;2023-05-07T04:25:22;2.92;;;1.90;;
73940;SDS011;62294;48.554;10.202;2023-05-07T04:27:52;3.13;;;2.45;;
73940;SDS011;62294;48.554;10.202;2023-05-07T04:30:23;2.70;;;2.00;;
73940;SDS011;62294;48.554;10.202;2023-05-07T04:32:49;4.60;;;2.40;;
73940;SDS011;62294;48.554;10.202;2023-05-07T04:35:16;3.58;;;2.45;;
73940;SDS011;62294;48.554;10.202;2023-05-07T04:37:44;5.10;;;2.42;;
73940;SDS011;62294;48.554;10.202;2023-05-07T04:40:10;4.65;;;2.63;;
73940;SDS011;62294;48.554;10.202;2023-05-07T04:42:37;4.80;;;2.50;;
73940;SDS011;62294;48.554;10.202;2023-05-07T04:45:04;3.92;;;2.35;;
73940;SDS011;62294;48.554;10.202;2023-05-07T04:47:31;3.80;;;2.30;;
73940;SDS011;62294;48.554;10.202;2023-05-07T04:49:58;5.15;;;2.47;;
73940;SDS011;62294;48.554;10.202;2023-05-07T04:52:24;4.28;;;2.25;;
73940;SDS011;62294;48.554;10.202;2023-05-07T04:54:52;5.45;;;2.33;;
73940;SDS011;62294;48.554;10.202;2023-05-07T04:57:19;5.15;;;2.50;;
73940;SDS011;62294;48.554;10.202;2023-05-07T04:59:45;5.97;;;2.88;;
73940;SDS011;62294;48.554;10.202;2023-05-07T05:02:12;4.93;;;2.95;;
73940;SDS011;62294;48.554;10.202;2023-05-07T05:04:38;3.47;;;2.40;;
73940;SDS011;62294;48.554;10.202;2023-05-07T05:07:05;3.13;;;2.35;;
73940;SDS011;62294;48.554;10.202;2023-05-07T05:09:31;3.80;;;2.30;;
73940;SDS011;62294;48.554;10.202;2023-05-07T05:11:58;5.22;;;2.47;;
73940;SDS011;62294;48.554;10.202;2023-05-07T05:14:26;4.43;;;2.50;;
73940;SDS011;62294;48.554;10.202;2023-05-07T05:16:53;3.72;;;2.63;;
73940;SDS011;62294;48.554;10.202;2023-05-07T05:19:19;3.85;;;2.67;;
73940;SDS011;62294;48.554;10.202;2023-05-07T05:21:46;4.68;;;2.67;;
73940;SDS011;62294;48.554;10.202;2023-05-07T05:24:12;5.40;;;2.70;;
73940;SDS011;62294;48.554;10.202;2023-05-07T05:26:39;4.80;;;2.67;;
73940;SDS011;62294;48.554;10.202;2023-05-07T05:29:06;3.47;;;2.63;;
73940;SDS011;62294;48.554;10.202;2023-05-07T05:31:33;3.55;;;2.35;;
73940;SDS011;62294;48.554;10.202;2023-05-07T05:34:00;4.15;;;2.55;;
73940;SDS011;62294;48.554;10.202;2023-05-07T05:36:27;4.07;;;2.30;;
73940;SDS011;62294;48.554;10.202;2023-05-07T05:38:53;4.63;;;2.72;;
73940;SDS011;62294;48.554;10.202;2023-05-07T05:41:19;5.55;;;2.92;;
73940;SDS011;62294;48.554;10.202;2023-05-07T05:43:48;4.68;;;2.95;;
73940;SDS011;62294;48.554;10.202;2023-05-07T05:46:14;9.68;;;5.18;;
73940;SDS011;62294;48.554;10.202;2023-05-07T05:48:41;11.77;;;6.22;;
73940;SDS011;62294;48.554;10.202;2023-05-07T05:51:07;12.15;;;7.30;;
73940;SDS011;62294;48.554;10.202;2023-05-07T05:53:34;9.43;;;6.28;;
73940;SDS011;62294;48.554;10.202;2023-05-07T05:56:00;6.13;;;4.35;;
73940;SDS011;62294;48.554;10.202;2023-05-07T05:58:27;4.65;;;3.28;;
73940;SDS011;62294;48.554;10.202;2023-05-07T06:00:53;6.18;;;3.17;;
73940;SDS011;62294;48.554;10.202;2023-05-07T06:03:20;3.38;;;2.78;;
73940;SDS011;62294;48.554;10.202;2023-05-07T06:05:47;4.57;;;2.83;;
73940;SDS011;62294;48.554;10.202;2023-05-07T06:08:13;4.43;;;2.53;;
73940;SDS011;62294;48.554;10.202;2023-05-07T06:10:40;4.22;;;3.10;;
73940;SDS011;62294;48.554;10.202;2023-05-07T06:13:07;4.78;;;2.80;;
73940;SDS011;62294;48.554;10.202;2023-05-07T06:15:33;3.97;;;2.75;;
73940;SDS011;62294;48.554;10.202;2023-05-07T06:18:00;4.78;;;2.85;;
73940;SDS011;62294;48.554;10.202;2023-05-07T06:20:27;3.65;;;2.83;;
73940;SDS011;62294;48.554;10.202;2023-05-07T06:22:53;4.18;;;2.85;;
73940;SDS011;62294;48.554;10.202;2023-05-07T06:25:19;4.93;;;3.20;;
73940;SDS011;62294;48.554;10.202;2023-05-07T06:27:46;4.22;;;3.08;;
73940;SDS011;62294;48.554;10.202;2023-05-07T06:30:13;3.83;;;2.70;;
73940;SDS011;62294;48.554;10.202;2023-05-07T06:32:40;3.22;;;2.67;;
73940;SDS011;62294;48.554;10.202;2023-05-07T06:35:07;6.70;;;2.88;;
73940;SDS011;62294;48.554;10.202;2023-05-07T06:37:34;3.50;;;2.65;;
73940;SDS011;62294;48.554;10.202;2023-05-07T06:40:00;6.38;;;3.13;;
73940;SDS011;62294;48.554;10.202;2023-05-07T06:42:27;4.05;;;3.08;;
73940;SDS011;62294;48.554;10.202;2023-05-07T06:44:53;4.10;;;2.90;;
73940;SDS011;62294;48.554;10.202;2023-05-07T06:47:21;4.20;;;2.90;;
73940;SDS011;62294;48.554;10.202;2023-05-07T06:49:48;4.70;;;3.22;;
73940;SDS011;62294;48.554;10.202;2023-05-07T06:52:14;3.88;;;2.40;;
73940;SDS011;62294;48.554;10.202;2023-05-07T06:54:40;4.68;;;3.10;;
73940;SDS011;62294;48.554;10.202;2023-05-07T06:57:07;8.40;;;3.17;;
73940;SDS011;62294;48.554;10.202;2023-05-07T06:59:34;5.07;;;3.08;;
73940;SDS011;62294;48.554;10.202;2023-05-07T07:02:00;5.25;;;3.20;;
73940;SDS011;62294;48.554;10.202;2023-05-07T07:04:27;4.85;;;3.00;;
73940;SDS011;62294;48.554;10.202;2023-05-07T07:06:54;3.95;;;3.20;;
73940;SDS011;62294;48.554;10.202;2023-05-07T07:09:20;5.93;;;3.42;;
73940;SDS011;62294;48.554;10.202;2023-05-07T07:11:49;4.47;;;2.88;;
73940;SDS011;62294;48.554;10.202;2023-05-07T07:14:15;3.90;;;3.13;;
73940;SDS011;62294;48.554;10.202;2023-05-07T07:16:42;4.28;;;2.95;;
73940;SDS011;62294;48.554;10.202;2023-05-07T07:19:08;4.10;;;2.80;;
73940;SDS011;62294;48.554;10.202;2023-05-07T07:21:35;4.40;;;2.75;;
73940;SDS011;62294;48.554;10.202;2023-05-07T07:24:01;3.72;;;2.88;;
73940;SDS011;62294;48.554;10.202;2023-05-07T07:26:28;4.70;;;2.90;;
73940;SDS011;62294;48.554;10.202;2023-05-07T07:28:55;4.80;;;2.85;;
73940;SDS011;62294;48.554;10.202;2023-05-07T07:31:21;3.90;;;2.88;;
73940;SDS011;62294;48.554;10.202;2023-05-07T07:33:47;4.10;;;2.72;;
73940;SDS011;62294;48.554;10.202;2023-05-07T07:36:18;6.28;;;2.55;;
73940;SDS011;62294;48.554;10.202;2023-05-07T07:38:44;3.45;;;2.53;;
73940;SDS011;62294;48.554;10.202;2023-05-07T07:41:11;4.53;;;2.63;;
73940;SDS011;62294;48.554;10.202;2023-05-07T07:43:37;3.58;;;2.50;;
73940;SDS011;62294;48.554;10.202;2023-05-07T07:46:04;3.42;;;2.55;;
73940;SDS011;62294;48.554;10.202;2023-05-07T07:48:30;3.20;;;2.63;;
73940;SDS011;62294;48.554;10.202;2023-05-07T07:50:57;4.00;;;2.78;;
73940;SDS011;62294;48.554;10.202;2023-05-07T07:53:23;4.50;;;3.03;;
73940;SDS011;62294;48.554;10.202;2023-05-07T07:55:50;4.95;;;2.63;;
73940;SDS011;62294;48.554;10.202;2023-05-07T07:58:16;2.88;;;2.42;;
73940;SDS011;62294;48.554;10.202;2023-05-07T08:00:43;4.30;;;2.50;;
73940;SDS011;62294;48.554;10.202;2023-05-07T08:03:10;4.60;;;2.90;;
73940;SDS011;62294;48.554;10.202;2023-05-07T08:05:37;4.10;;;2.97;;
73940;SDS011;62294;48.554;10.202;2023-05-07T08:08:04;5.93;;;3.90;;
73940;SDS011;62294;48.554;10.202;2023-05-07T08:10:31;5.72;;;3.45;;
73940;SDS011;62294;48.554;10.202;2023-05-07T08:13:01;4.45;;;2.97;;
73940;SDS011;62294;48.554;10.202;2023-05-07T08:15:29;4.43;;;3.20;;
73940;SDS011;62294;48.554;10.202;2023-05-07T08:17:57;3.58;;;2.90;;
73940;SDS011;62294;48.554;10.202;2023-05-07T08:20:26;4.10;;;3.03;;
73940;SDS011;62294;48.554;10.202;2023-05-07T08:22:52;3.65;;;2.90;;
73940;SDS011;62294;48.554;10.202;2023-05-07T08:25:19;6.75;;;3.33;;
73940;SDS011;62294;48.554;10.202;2023-05-07T08:27:46;13.68;;;3.30;;
73940;SDS011;62294;48.554;10.202;2023-05-07T08:30:12;5.07;;;3.05;;
73940;SDS011;62294;48.554;10.202;2023-05-07T08:32:39;6.13;;;3.40;;
73940;SDS011;62294;48.554;10.202;2023-05-07T08:35:06;5.35;;;3.28;;
73940;SDS011;62294;48.554;10.202;2023-05-07T08:37:33;3.67;;;3.28;;
73940;SDS011;62294;48.554;10.202;2023-05-07T08:39:59;5.63;;;3.08;;
73940;SDS011;62294;48.554;10.202;2023-05-07T08:42:26;4.80;;;3.35;;
73940;SDS011;62294;48.554;10.202;2023-05-07T08:44:56;6.00;;;3.70;;
73940;SDS011;62294;48.554;10.202;2023-05-07T08:47:27;7.55;;;3.60;;
73940;SDS011;62294;48.554;10.202;2023-05-07T08:49:58;7.13;;;3.10;;
73940;SDS011;62294;48.554;10.202;2023-05-07T08:52:24;4.32;;;3.53;;
73940;SDS011;62294;48.554;10.202;2023-05-07T08:54:52;6.05;;;4.00;;
73940;SDS011;62294;48.554;10.202;2023-05-07T08:57:18;4.28;;;3.33;;
73940;SDS011;62294;48.554;10.202;2023-05-07T08:59:46;4.70;;;3.35;;
73940;SDS011;62294;48.554;10.202;2023-05-07T09:02:13;4.40;;;2.72;;
73940;SDS011;62294;48.554;10.202;2023-05-07T09:04:40;6.07;;;3.75;;
73940;SDS011;62294;48.554;10.202;2023-05-07T09:07:06;6.22;;;3.50;;
73940;SDS011;62294;48.554;10.202;2023-05-07T09:09:33;5.60;;;3.47;;
73940;SDS011;62294;48.554;10.202;2023-05-07T09:12:00;6.22;;;3.90;;
73940;SDS011;62294;48.554;10.202;2023-05-07T09:14:28;5.75;;;3.65;;
73940;SDS011;62294;48.554;10.202;2023-05-07T09:16:54;5.00;;;3.60;;
73940;SDS011;62294;48.554;10.202;2023-05-07T09:19:22;5.57;;;3.97;;
73940;SDS011;62294;48.554;10.202;2023-05-07T09:21:50;4.88;;;3.38;;
73940;SDS011;62294;48.554;10.202;2023-05-07T09:24:24;4.28;;;3.80;;
73940;SDS011;62294;48.554;10.202;2023-05-07T09:26:50;4.32;;;3.63;;
73940;SDS011;62294;48.554;10.202;2023-05-07T09:29:17;10.13;;;3.67;;
73940;SDS011;62294;48.554;10.202;2023-05-07T09:31:44;5.45;;;3.38;;
73940;SDS011;62294;48.554;10.202;2023-05-07T09:34:11;5.25;;;3.67;;
73940;SDS011;62294;48.554;10.202;2023-05-07T09:36:37;6.90;;;3.75;;
73940;SDS011;62294;48.554;10.202;2023-05-07T09:39:04;4.93;;;3.88;;
73940;SDS011;62294;48.554;10.202;2023-05-07T09:41:31;7.43;;;3.92;;
73940;SDS011;62294;48.554;10.202;2023-05-07T09:43:58;6.85;;;3.72;;
73940;SDS011;62294;48.554;10.202;2023-05-07T09:46:30;4.75;;;3.83;;
73940;SDS011;62294;48.554;10.202;2023-05-07T09:48:57;7.55;;;4.57;;
73940;SDS011;62294;48.554;10.202;2023-05-07T09:51:28;5.82;;;4.20;;
73940;SDS011;62294;48.554;10.202;2023-05-07T09:54:00;6.30;;;3.92;;
73940;SDS011;62294;48.554;10.202;2023-05-07T09:56:29;10.50;;;4.78;;
73940;SDS011;62294;48.554;10.202;2023-05-07T09:58:57;7.43;;;4.40;;
73940;SDS011;62294;48.554;10.202;2023-05-07T10:01:26;5.68;;;4.28;;
73940;SDS011;62294;48.554;10.202;2023-05-07T10:03:54;9.95;;;4.97;;
73940;SDS011;62294;48.554;10.202;2023-05-07T10:06:23;5.47;;;3.60;;
73940;SDS011;62294;48.554;10.202;2023-05-07T10:08:51;5.32;;;4.07;;
73940;SDS011;62294;48.554;10.202;2023-05-07T10:11:19;8.35;;;4.32;;
73940;SDS011;62294;48.554;10.202;2023-05-07T10:13:46;5.72;;;4.47;;
73940;SDS011;62294;48.554;10.202;2023-05-07T10:16:14;6.22;;;4.40;;
73940;SDS011;62294;48.554;10.202;2023-05-07T10:18:41;4.90;;;3.63;;
73940;SDS011;62294;48.554;10.202;2023-05-07T10:21:16;6.05;;;3.15;;
73940;SDS011;62294;48.554;10.202;2023-05-07T10:23:51;5.30;;;3.13;;
73940;SDS011;62294;48.554;10.202;2023-05-07T10:26:23;5.28;;;3.30;;
73940;SDS011;62294;48.554;10.202;2023-05-07T10:28:54;5.30;;;3.10;;
73940;SDS011;62294;48.554;10.202;2023-05-07T10:34:16;5.85;;;3.90;;
73940;SDS011;62294;48.554;10.202;2023-05-07T10:36:47;4.95;;;4.20;;
73940;SDS011;62294;48.554;10.202;2023-05-07T10:39:16;5.25;;;3.80;;
73940;SDS011;62294;48.554;10.202;2023-05-07T10:41:43;4.93;;;3.53;;
73940;SDS011;62294;48.554;10.202;2023-05-07T10:44:09;7.63;;;4.57;;
73940;SDS011;62294;48.554;10.202;2023-05-07T10:46:36;7.88;;;4.63;;
73940;SDS011;62294;48.554;10.202;2023-05-07T10:51:30;5.53;;;4.22;;
73940;SDS011;62294;48.554;10.202;2023-05-07T10:56:41;5.97;;;4.35;;
73940;SDS011;62294;48.554;10.202;2023-05-07T11:01:49;3.97;;;3.30;;
73940;SDS011;62294;48.554;10.202;2023-05-07T11:04:21;7.53;;;3.38;;
73940;SDS011;62294;48.554;10.202;2023-05-07T11:15:06;6.78;;;3.75;;
73940;SDS011;62294;48.554;10.202;2023-05-07T11:17:55;7.35;;;3.65;;
73940;SDS011;62294;48.554;10.202;2023-05-07T11:26:04;3.58;;;2.80;;
73940;SDS011;62294;48.554;10.202;2023-05-07T11:28:44;4.72;;;2.92;;
73940;SDS011;62294;48.554;10.202;2023-05-07T11:31:10;4.30;;;2.85;;
73940;SDS011;62294;48.554;10.202;2023-05-07T11:33:38;5.03;;;2.70;;
73940;SDS011;62294;48.554;10.202;2023-05-07T11:36:05;5.07;;;2.67;;
73940;SDS011;62294;48.554;10.202;2023-05-07T11:38:34;9.70;;;2.92;;
73940;SDS011;62294;48.554;10.202;2023-05-07T11:41:02;3.92;;;2.30;;
73940;SDS011;62294;48.554;10.202;2023-05-07T11:43:31;4.43;;;2.72;;
73940;SDS011;62294;48.554;10.202;2023-05-07T11:46:08;5.68;;;2.30;;
73940;SDS011;62294;48.554;10.202;2023-05-07T11:48:37;3.40;;;2.63;;
73940;SDS011;62294;48.554;10.202;2023-05-07T11:51:05;3.58;;;2.38;;
73940;SDS011;62294;48.554;10.202;2023-05-07T11:53:39;4.13;;;2.45;;
73940;SDS011;62294;48.554;10.202;2023-05-07T11:56:07;3.88;;;2.40;;
73940;SDS011;62294;48.554;10.202;2023-05-07T11:58:35;4.18;;;2.00;;
73940;SDS011;62294;48.554;10.202;2023-05-07T12:01:02;4.00;;;2.28;;
73940;SDS011;62294;48.554;10.202;2023-05-07T12:03:29;2.17;;;1.80;;
73940;SDS011;62294;48.554;10.202;2023-05-07T12:06:01;3.15;;;2.05;;
73940;SDS011;62294;48.554;10.202;2023-05-07T12:08:28;2.83;;;1.90;;
73940;SDS011;62294;48.554;10.202;2023-05-07T12:10:54;4.97;;;1.70;;
73940;SDS011;62294;48.554;10.202;2023-05-07T12:13:22;2.35;;;1.90;;
73940;SDS011;62294;48.554;10.202;2023-05-07T12:15:53;2.13;;;1.92;;
73940;SDS011;62294;48.554;10.202;2023-05-07T12:18:21;2.13;;;1.80;;
73940;SDS011;62294;48.554;10.202;2023-05-07T12:20:49;2.10;;;1.90;;
73940;SDS011;62294;48.554;10.202;2023-05-07T12:23:16;2.90;;;2.05;;
73940;SDS011;62294;48.554;10.202;2023-05-07T12:25:44;3.65;;;1.73;;
73940;SDS011;62294;48.554;10.202;2023-05-07T12:28:14;2.88;;;2.00;;
73940;SDS011;62294;48.554;10.202;2023-05-07T12:30:43;3.90;;;2.40;;
73940;SDS011;62294;48.554;10.202;2023-05-07T12:33:10;4.40;;;2.13;;
73940;SDS011;62294;48.554;10.202;2023-05-07T12:35:38;2.85;;;1.70;;
73940;SDS011;62294;48.554;10.202;2023-05-07T12:38:07;2.10;;;1.88;;
73940;SDS011;62294;48.554;10.202;2023-05-07T12:40:39;2.90;;;1.90;;
73940;SDS011;62294;48.554;10.202;2023-05-07T12:43:14;4.57;;;2.08;;
73940;SDS011;62294;48.554;10.202;2023-05-07T12:45:53;2.17;;;1.50;;
73940;SDS011;62294;48.554;10.202;2023-05-07T12:48:22;3.75;;;2.00;;
73940;SDS011;62294;48.554;10.202;2023-05-07T12:50:49;2.03;;;1.83;;
73940;SDS011;62294;48.554;10.202;2023-05-07T12:53:19;3.60;;;2.08;;
73940;SDS011;62294;48.554;10.202;2023-05-07T12:55:48;3.13;;;1.65;;
73940;SDS011;62294;48.554;10.202;2023-05-07T12:58:17;4.10;;;1.65;;
73940;SDS011;62294;48.554;10.202;2023-05-07T13:00:55;1.88;;;1.70;;
73940;SDS011;62294;48.554;10.202;2023-05-07T13:03:30;3.72;;;1.80;;
73940;SDS011;62294;48.554;10.202;2023-05-07T13:05:59;4.40;;;2.22;;
73940;SDS011;62294;48.554;10.202;2023-05-07T13:08:28;4.05;;;1.50;;
73940;SDS011;62294;48.554;10.202;2023-05-07T13:10:58;3.28;;;2.15;;
73940;SDS011;62294;48.554;10.202;2023-05-07T13:13:33;2.00;;;1.80;;
73940;SDS011;62294;48.554;10.202;2023-05-07T13:16:02;2.42;;;1.80;;
73940;SDS011;62294;48.554;10.202;2023-05-07T13:18:29;5.45;;;1.60;;
73940;SDS011;62294;48.554;10.202;2023-05-07T13:20:57;1.63;;;1.30;;
73940;SDS011;62294;48.554;10.202;2023-05-07T13:23:24;3.80;;;1.98;;
73940;SDS011;62294;48.554;10.202;2023-05-07T13:25:51;1.95;;;1.63;;
73940;SDS011;62294;48.554;10.202;2023-05-07T13:28:19;1.85;;;1.55;;
73940;SDS011;62294;48.554;10.202;2023-05-07T13:30:47;1.92;;;1.60;;
73940;SDS011;62294;48.554;10.202;2023-05-07T13:33:14;2.50;;;1.50;;
73940;SDS011;62294;48.554;10.202;2023-05-07T13:35:42;3.28;;;1.75;;
73940;SDS011;62294;48.554;10.202;2023-05-07T13:38:08;2.72;;;1.70;;
73940;SDS011;62294;48.554;10.202;2023-05-07T13:40:35;4.57;;;1.92;;
73940;SDS011;62294;48.554;10.202;2023-05-07T13:43:02;2.95;;;1.80;;
73940;SDS011;62294;48.554;10.202;2023-05-07T13:45:29;3.20;;;1.92;;
73940;SDS011;62294;48.554;10.202;2023-05-07T13:47:56;3.72;;;1.65;;
73940;SDS011;62294;48.554;10.202;2023-05-07T13:50:23;2.30;;;1.70;;
73940;SDS011;62294;48.554;10.202;2023-05-07T13:52:50;4.15;;;1.52;;
73940;SDS011;62294;48.554;10.202;2023-05-07T13:55:17;4.57;;;1.80;;
73940;SDS011;62294;48.554;10.202;2023-05-07T13:57:44;2.30;;;1.73;;
73940;SDS011;62294;48.554;10.202;2023-05-07T14:00:11;2.10;;;1.85;;
73940;SDS011;62294;48.554;10.202;2023-05-07T14:02:39;2.08;;;1.60;;
73940;SDS011;62294;48.554;10.202;2023-05-07T14:05:06;2.15;;;1.63;;
73940;SDS011;62294;48.554;10.202;2023-05-07T14:07:34;2.00;;;1.60;;
73940;SDS011;62294;48.554;10.202;2023-05-07T14:10:02;2.53;;;1.75;;
73940;SDS011;62294;48.554;10.202;2023-05-07T14:12:29;4.95;;;2.20;;
73940;SDS011;62294;48.554;10.202;2023-05-07T14:14:55;4.40;;;2.00;;
73940;SDS011;62294;48.554;10.202;2023-05-07T14:17:23;3.72;;;1.80;;
73940;SDS011;62294;48.554;10.202;2023-05-07T14:19:51;2.85;;;1.80;;
73940;SDS011;62294;48.554;10.202;2023-05-07T14:22:20;3.00;;;1.98;;
73940;SDS011;62294;48.554;10.202;2023-05-07T14:24:49;5.22;;;2.17;;
73940;SDS011;62294;48.554;10.202;2023-05-07T14:27:31;3.25;;;1.98;;
73940;SDS011;62294;48.554;10.202;2023-05-07T14:29:58;2.92;;;2.60;;
73940;SDS011;62294;48.554;10.202;2023-05-07T14:32:25;3.10;;;2.15;;
73940;SDS011;62294;48.554;10.202;2023-05-07T14:34:51;3.55;;;2.08;;
73940;SDS011;62294;48.554;10.202;2023-05-07T14:37:18;4.50;;;2.08;;
73940;SDS011;62294;48.554;10.202;2023-05-07T14:39:45;3.40;;;2.33;;
73940;SDS011;62294;48.554;10.202;2023-05-07T14:42:15;2.78;;;2.15;;
73940;SDS011;62294;48.554;10.202;2023-05-07T14:44:41;2.97;;;2.10;;
73940;SDS011;62294;48.554;10.202;2023-05-07T14:47:08;2.78;;;2.00;;
73940;SDS011;62294;48.554;10.202;2023-05-07T14:49:34;6.20;;;2.30;;
73940;SDS011;62294;48.554;10.202;2023-05-07T14:52:01;3.30;;;2.60;;
73940;SDS011;62294;48.554;10.202;2023-05-07T14:54:28;4.03;;;2.38;;
73940;SDS011;62294;48.554;10.202;2023-05-07T14:56:54;3.80;;;2.42;;
73940;SDS011;62294;48.554;10.202;2023-05-07T14:59:22;5.80;;;2.42;;